sensor_id;sensor_type;location;lat;lon;timestamp;pressure;altitude;pressure_sealevel;temperature;humidity
28306;BME280;7516;43.570;1.448;2023-08-07T00:01:11;100240.94;;;18.55;50.85
28306;BME280;7516;43.570;1.448;2023-08-07T00:03:40;100241.34;;;18.52;50.96
28306;BME280;7516;43.570;1.448;2023-08-07T00:06:08;100247.06;;;18.49;50.91
28306;BME280;7516;43.570;1.448;2023-08-07T00:08:35;100246.91;;;18.44;51.14
28306;BME280;7516;43.570;1.448;2023-08-07T00:11:08;100242.81;;;18.41;51.25
28306;BME280;7516;43.570;1.448;2023-08-07T00:13:36;100243.03;;;18.40;51.55
28306;BME280;7516;43.570;1.448;2023-08-07T00:16:04;100239.78;;;18.38;51.43
28306;BME280;7516;43.570;1.448;2023-08-07T00:18:31;100245.09;;;18.38;51.66
28306;BME280;7516;43.570;1.448;2023-08-07T00:21:00;100243.47;;;18.37;51.39
28306;BME280;7516;43.570;1.448;2023-08-07T00:23:28;100246.31;;;18.35;51.73
28306;BME280;7516;43.570;1.448;2023-08-07T00:25:55;100239.38;;;18.34;52.01
28306;BME280;7516;43.570;1.448;2023-08-07T00:28:23;100230.00;;;18.32;51.94
28306;BME280;7516;43.570;1.448;2023-08-07T00:30:50;100244.50;;;18.29;51.97
28306;BME280;7516;43.570;1.448;2023-08-07T00:33:17;100237.78;;;18.27;52.05
28306;BME280;7516;43.570;1.448;2023-08-07T00:35:45;100241.66;;;18.24;52.12
28306;BME280;7516;43.570;1.448;2023-08-07T00:38:14;100227.19;;;18.20;52.38
28306;BME280;7516;43.570;1.448;2023-08-07T00:40:41;100235.56;;;18.17;52.60
28306;BME280;7516;43.570;1.448;2023-08-07T00:43:09;100230.84;;;18.13;52.75
28306;BME280;7516;43.570;1.448;2023-08-07T00:45:40;100231.50;;;18.08;52.48
28306;BME280;7516;43.570;1.448;2023-08-07T00:48:09;100239.03;;;18.04;52.95
28306;BME280;7516;43.570;1.448;2023-08-07T00:50:38;100228.88;;;18.01;52.85
28306;BME280;7516;43.570;1.448;2023-08-07T00:53:06;100227.03;;;17.95;53.04
28306;BME280;7516;43.570;1.448;2023-08-07T00:55:35;100233.78;;;17.91;53.24
28306;BME280;7516;43.570;1.448;2023-08-07T00:58:03;100229.69;;;17.89;53.46
28306;BME280;7516;43.570;1.448;2023-08-07T01:00:30;100225.59;;;17.86;53.60
28306;BME280;7516;43.570;1.448;2023-08-07T01:02:58;100218.28;;;17.82;53.83
28306;BME280;7516;43.570;1.448;2023-08-07T01:05:26;100230.13;;;17.79;54.07
28306;BME280;7516;43.570;1.448;2023-08-07T01:07:54;100230.53;;;17.76;53.73
28306;BME280;7516;43.570;1.448;2023-08-07T01:10:29;100230.13;;;17.73;54.28
28306;BME280;7516;43.570;1.448;2023-08-07T01:13:07;100231.53;;;17.68;54.05
28306;BME280;7516;43.570;1.448;2023-08-07T01:15:38;100230.16;;;17.66;54.22
28306;BME280;7516;43.570;1.448;2023-08-07T01:18:08;100237.47;;;17.64;54.60
28306;BME280;7516;43.570;1.448;2023-08-07T01:20:36;100235.84;;;17.63;54.68
28306;BME280;7516;43.570;1.448;2023-08-07T01:23:04;100233.38;;;17.61;55.01
28306;BME280;7516;43.570;1.448;2023-08-07T01:25:32;100233.38;;;17.61;54.95
28306;BME280;7516;43.570;1.448;2023-08-07T01:28:06;100230.09;;;17.59;55.04
28306;BME280;7516;43.570;1.448;2023-08-07T01:30:40;100231.34;;;17.57;54.57
28306;BME280;7516;43.570;1.448;2023-08-07T01:33:12;100224.59;;;17.54;55.05
28306;BME280;7516;43.570;1.448;2023-08-07T01:35:46;100221.53;;;17.51;55.48
28306;BME280;7516;43.570;1.448;2023-08-07T01:38:16;100222.78;;;17.48;55.25
28306;BME280;7516;43.570;1.448;2023-08-07T01:40:44;100220.72;;;17.44;55.18
28306;BME280;7516;43.570;1.448;2023-08-07T01:43:13;100225.22;;;17.43;55.32
28306;BME280;7516;43.570;1.448;2023-08-07T01:45:41;100225.41;;;17.42;55.72
28306;BME280;7516;43.570;1.448;2023-08-07T01:48:08;100221.16;;;17.41;55.43
28306;BME280;7516;43.570;1.448;2023-08-07T01:50:36;100220.53;;;17.39;55.65
28306;BME280;7516;43.570;1.448;2023-08-07T01:53:03;100216.25;;;17.38;55.81
28306;BME280;7516;43.570;1.448;2023-08-07T01:55:32;100221.56;;;17.38;55.77
28306;BME280;7516;43.570;1.448;2023-08-07T01:58:00;100217.06;;;17.38;55.99
28306;BME280;7516;43.570;1.448;2023-08-07T02:00:28;100221.56;;;17.38;56.27
28306;BME280;7516;43.570;1.448;2023-08-07T02:02:56;100223.19;;;17.39;56.19
28306;BME280;7516;43.570;1.448;2023-08-07T02:05:23;100224.00;;;17.39;56.17
28306;BME280;7516;43.570;1.448;2023-08-07T02:07:51;100233.97;;;17.37;56.72
28306;BME280;7516;43.570;1.448;2023-08-07T02:10:18;100242.13;;;17.36;56.54
28306;BME280;7516;43.570;1.448;2023-08-07T02:12:47;100234.19;;;17.36;56.50
28306;BME280;7516;43.570;1.448;2023-08-07T02:15:15;100239.47;;;17.36;56.72
28306;BME280;7516;43.570;1.448;2023-08-07T02:17:42;100230.91;;;17.34;56.70
28306;BME280;7516;43.570;1.448;2023-08-07T02:20:10;100237.25;;;17.33;57.05
28306;BME280;7516;43.570;1.448;2023-08-07T02:22:38;100240.28;;;17.29;56.85
28306;BME280;7516;43.570;1.448;2023-08-07T02:25:06;100239.88;;;17.26;56.98
28306;BME280;7516;43.570;1.448;2023-08-07T02:27:34;100235.38;;;17.26;57.15
28306;BME280;7516;43.570;1.448;2023-08-07T02:30:03;100234.19;;;17.22;57.08
28306;BME280;7516;43.570;1.448;2023-08-07T02:32:31;100231.72;;;17.21;57.40
28306;BME280;7516;43.570;1.448;2023-08-07T02:34:59;100233.56;;;17.20;57.31
28306;BME280;7516;43.570;1.448;2023-08-07T02:37:26;100232.94;;;17.18;57.54
28306;BME280;7516;43.570;1.448;2023-08-07T02:39:53;100228.03;;;17.15;57.56
28306;BME280;7516;43.570;1.448;2023-08-07T02:42:21;100228.66;;;17.11;57.97
28306;BME280;7516;43.570;1.448;2023-08-07T02:44:48;100218.88;;;17.05;57.72
28306;BME280;7516;43.570;1.448;2023-08-07T02:47:17;100226.41;;;17.01;57.86
28306;BME280;7516;43.570;1.448;2023-08-07T02:49:45;100225.38;;;16.96;58.10
28306;BME280;7516;43.570;1.448;2023-08-07T02:52:12;100225.13;;;16.90;58.20
28306;BME280;7516;43.570;1.448;2023-08-07T02:54:39;100223.09;;;16.86;58.73
28306;BME280;7516;43.570;1.448;2023-08-07T02:57:07;100227.59;;;16.85;58.90
28306;BME280;7516;43.570;1.448;2023-08-07T02:59:34;100223.50;;;16.83;59.21
28306;BME280;7516;43.570;1.448;2023-08-07T03:02:02;100218.41;;;16.81;58.96
28306;BME280;7516;43.570;1.448;2023-08-07T03:04:31;100217.19;;;16.77;59.23
28306;BME280;7516;43.570;1.448;2023-08-07T03:06:59;100221.03;;;16.75;59.11
28306;BME280;7516;43.570;1.448;2023-08-07T03:09:27;100226.72;;;16.72;59.08
28306;BME280;7516;43.570;1.448;2023-08-07T03:11:54;100223.88;;;16.67;59.05
28306;BME280;7516;43.570;1.448;2023-08-07T03:14:21;100229.34;;;16.65;59.48
28306;BME280;7516;43.570;1.448;2023-08-07T03:16:49;100229.34;;;16.65;59.50
28306;BME280;7516;43.570;1.448;2023-08-07T03:19:16;100225.88;;;16.65;60.02
28306;BME280;7516;43.570;1.448;2023-08-07T03:21:48;100224.25;;;16.64;59.70
28306;BME280;7516;43.570;1.448;2023-08-07T03:24:16;100227.91;;;16.63;59.91
28306;BME280;7516;43.570;1.448;2023-08-07T03:26:43;100224.63;;;16.61;59.92
28306;BME280;7516;43.570;1.448;2023-08-07T03:29:13;100222.56;;;16.56;59.94
28306;BME280;7516;43.570;1.448;2023-08-07T03:31:40;100230.31;;;16.58;60.24
28306;BME280;7516;43.570;1.448;2023-08-07T03:34:08;100227.84;;;16.56;60.26
28306;BME280;7516;43.570;1.448;2023-08-07T03:36:35;100237.00;;;16.53;60.14
28306;BME280;7516;43.570;1.448;2023-08-07T03:39:04;100243.34;;;16.52;60.34
28306;BME280;7516;43.570;1.448;2023-08-07T03:41:32;100238.44;;;16.49;60.47
28306;BME280;7516;43.570;1.448;2023-08-07T03:43:59;100243.09;;;16.47;60.46
28306;BME280;7516;43.570;1.448;2023-08-07T03:46:26;100241.47;;;16.46;60.59
28306;BME280;7516;43.570;1.448;2023-08-07T03:48:54;100230.88;;;16.46;60.91
28306;BME280;7516;43.570;1.448;2023-08-07T03:51:21;100223.13;;;16.45;61.29
28306;BME280;7516;43.570;1.448;2023-08-07T03:53:49;100228.63;;;16.43;60.92
28306;BME280;7516;43.570;1.448;2023-08-07T03:56:18;100232.50;;;16.41;61.21
28306;BME280;7516;43.570;1.448;2023-08-07T03:58:45;100229.41;;;16.37;61.30
28306;BME280;7516;43.570;1.448;2023-08-07T04:01:15;100225.53;;;16.33;61.80
28306;BME280;7516;43.570;1.448;2023-08-07T04:03:43;100228.56;;;16.30;61.58
28306;BME280;7516;43.570;1.448;2023-08-07T04:06:10;100223.66;;;16.27;61.94
28306;BME280;7516;43.570;1.448;2023-08-07T04:08:41;100225.06;;;16.23;61.87
28306;BME280;7516;43.570;1.448;2023-08-07T04:11:09;100226.47;;;16.19;62.52
28306;BME280;7516;43.570;1.448;2023-08-07T04:13:38;100217.31;;;16.15;62.53
28306;BME280;7516;43.570;1.448;2023-08-07T04:16:06;100218.69;;;16.11;62.80
28306;BME280;7516;43.570;1.448;2023-08-07T04:18:33;100226.41;;;16.06;63.08
28306;BME280;7516;43.570;1.448;2023-08-07T04:21:01;100218.84;;;16.03;62.88
28306;BME280;7516;43.570;1.448;2023-08-07T04:23:28;100220.88;;;16.01;63.35
28306;BME280;7516;43.570;1.448;2023-08-07T04:25:57;100213.34;;;15.98;63.20
28306;BME280;7516;43.570;1.448;2023-08-07T04:28:25;100225.31;;;15.94;63.85
28306;BME280;7516;43.570;1.448;2023-08-07T04:30:53;100230.00;;;15.92;63.59
28306;BME280;7516;43.570;1.448;2023-08-07T04:33:21;100227.91;;;15.87;63.74
28306;BME280;7516;43.570;1.448;2023-08-07T04:35:49;100231.56;;;15.86;63.97
28306;BME280;7516;43.570;1.448;2023-08-07T04:38:16;100230.13;;;15.84;64.05
28306;BME280;7516;43.570;1.448;2023-08-07T04:40:44;100234.81;;;15.82;64.29
28306;BME280;7516;43.570;1.448;2023-08-07T04:43:12;100237.00;;;15.78;64.43
28306;BME280;7516;43.570;1.448;2023-08-07T04:45:40;100243.69;;;15.74;64.59
28306;BME280;7516;43.570;1.448;2023-08-07T04:48:09;100237.16;;;15.70;65.11
28306;BME280;7516;43.570;1.448;2023-08-07T04:50:37;100234.88;;;15.67;65.28
28306;BME280;7516;43.570;1.448;2023-08-07T04:53:05;100233.47;;;15.64;65.22
28306;BME280;7516;43.570;1.448;2023-08-07T04:55:33;100235.66;;;15.61;65.52
28306;BME280;7516;43.570;1.448;2023-08-07T04:58:00;100228.91;;;15.58;65.44
28306;BME280;7516;43.570;1.448;2023-08-07T05:00:28;100236.25;;;15.56;66.13
28306;BME280;7516;43.570;1.448;2023-08-07T05:02:55;100243.53;;;15.54;66.10
28306;BME280;7516;43.570;1.448;2023-08-07T05:05:24;100241.41;;;15.50;66.29
28306;BME280;7516;43.570;1.448;2023-08-07T05:07:53;100235.31;;;15.49;66.41
28306;BME280;7516;43.570;1.448;2023-08-07T05:10:21;100238.97;;;15.48;66.51
28306;BME280;7516;43.570;1.448;2023-08-07T05:12:49;100233.25;;;15.44;66.48
28306;BME280;7516;43.570;1.448;2023-08-07T05:15:21;100239.38;;;15.45;66.83
28306;BME280;7516;43.570;1.448;2023-08-07T05:17:49;100238.53;;;15.44;66.92
28306;BME280;7516;43.570;1.448;2023-08-07T05:20:17;100232.44;;;15.44;67.28
28306;BME280;7516;43.570;1.448;2023-08-07T05:22:46;100234.09;;;15.45;67.33
28306;BME280;7516;43.570;1.448;2023-08-07T05:25:14;100234.09;;;15.45;67.49
28306;BME280;7516;43.570;1.448;2023-08-07T05:27:42;100234.91;;;15.46;67.55
28306;BME280;7516;43.570;1.448;2023-08-07T05:30:11;100228.81;;;15.45;67.38
28306;BME280;7516;43.570;1.448;2023-08-07T05:32:38;100238.34;;;15.46;67.41
28306;BME280;7516;43.570;1.448;2023-08-07T05:35:06;100242.63;;;15.47;67.67
28306;BME280;7516;43.570;1.448;2023-08-07T05:37:34;100238.19;;;15.48;67.62
28306;BME280;7516;43.570;1.448;2023-08-07T05:40:04;100244.88;;;15.50;67.86
28306;BME280;7516;43.570;1.448;2023-08-07T05:42:32;100236.13;;;15.50;67.88
28306;BME280;7516;43.570;1.448;2023-08-07T05:45:00;100244.69;;;15.52;67.85
28306;BME280;7516;43.570;1.448;2023-08-07T05:47:28;100239.06;;;15.55;67.90
28306;BME280;7516;43.570;1.448;2023-08-07T05:49:55;100246.81;;;15.56;68.19
28306;BME280;7516;43.570;1.448;2023-08-07T05:52:23;100243.97;;;15.58;67.71
28306;BME280;7516;43.570;1.448;2023-08-07T05:54:50;100241.13;;;15.59;68.35
28306;BME280;7516;43.570;1.448;2023-08-07T05:57:19;100245.66;;;15.65;67.94
28306;BME280;7516;43.570;1.448;2023-08-07T05:59:47;100241.16;;;15.66;68.08
28306;BME280;7516;43.570;1.448;2023-08-07T06:02:14;100239.97;;;15.68;67.97
28306;BME280;7516;43.570;1.448;2023-08-07T06:04:42;100240.44;;;15.72;68.07
28306;BME280;7516;43.570;1.448;2023-08-07T06:07:09;100248.16;;;15.73;68.06
28306;BME280;7516;43.570;1.448;2023-08-07T06:09:37;100246.13;;;15.75;68.33
28306;BME280;7516;43.570;1.448;2023-08-07T06:12:05;100251.03;;;15.78;68.47
28306;BME280;7516;43.570;1.448;2023-08-07T06:14:34;100249.03;;;15.80;68.35
28306;BME280;7516;43.570;1.448;2023-08-07T06:17:02;100250.25;;;15.85;68.09
28306;BME280;7516;43.570;1.448;2023-08-07T06:19:30;100250.50;;;15.90;67.84
28306;BME280;7516;43.570;1.448;2023-08-07T06:21:57;100247.47;;;15.93;67.91
28306;BME280;7516;43.570;1.448;2023-08-07T06:24:24;100246.28;;;15.95;67.77
28306;BME280;7516;43.570;1.448;2023-08-07T06:26:52;100249.53;;;15.97;67.50
28306;BME280;7516;43.570;1.448;2023-08-07T06:29:19;100253.00;;;15.98;68.14
28306;BME280;7516;43.570;1.448;2023-08-07T06:31:48;100243.06;;;16.00;67.68
28306;BME280;7516;43.570;1.448;2023-08-07T06:34:16;100244.47;;;16.02;67.69
28306;BME280;7516;43.570;1.448;2023-08-07T06:36:43;100245.09;;;16.04;67.54
28306;BME280;7516;43.570;1.448;2023-08-07T06:39:11;100251.44;;;16.10;67.36
28306;BME280;7516;43.570;1.448;2023-08-07T06:41:38;100249.41;;;16.12;67.57
28306;BME280;7516;43.570;1.448;2023-08-07T06:44:06;100250.88;;;16.14;67.43
28306;BME280;7516;43.570;1.448;2023-08-07T06:46:33;100248.03;;;16.16;67.56
28306;BME280;7516;43.570;1.448;2023-08-07T06:49:03;100253.94;;;16.18;67.16
28306;BME280;7516;43.570;1.448;2023-08-07T06:51:30;100255.19;;;16.22;67.05
28306;BME280;7516;43.570;1.448;2023-08-07T06:53:58;100248.50;;;16.26;66.99
28306;BME280;7516;43.570;1.448;2023-08-07T06:56:25;100256.66;;;16.31;67.35
28306;BME280;7516;43.570;1.448;2023-08-07T06:58:53;100249.97;;;16.35;67.32
28306;BME280;7516;43.570;1.448;2023-08-07T07:01:21;100260.78;;;16.40;67.08
28306;BME280;7516;43.570;1.448;2023-08-07T07:03:48;100253.47;;;16.42;66.81
28306;BME280;7516;43.570;1.448;2023-08-07T07:06:20;100253.03;;;16.45;66.76
28306;BME280;7516;43.570;1.448;2023-08-07T07:08:49;100255.94;;;16.50;67.00
28306;BME280;7516;43.570;1.448;2023-08-07T07:11:17;100255.34;;;16.55;66.63
28306;BME280;7516;43.570;1.448;2023-08-07T07:13:45;100262.69;;;16.60;66.25
28306;BME280;7516;43.570;1.448;2023-08-07T07:16:12;100259.66;;;16.63;66.08
28306;BME280;7516;43.570;1.448;2023-08-07T07:18:40;100263.75;;;16.65;65.94
28306;BME280;7516;43.570;1.448;2023-08-07T07:21:07;100257.06;;;16.69;66.55
28306;BME280;7516;43.570;1.448;2023-08-07T07:23:36;100255.44;;;16.75;66.06
28306;BME280;7516;43.570;1.448;2023-08-07T07:26:03;100264.63;;;16.79;65.85
28306;BME280;7516;43.570;1.448;2023-08-07T07:28:31;100254.66;;;16.81;65.76
28306;BME280;7516;43.570;1.448;2023-08-07T07:30:58;100258.53;;;16.85;65.56
28306;BME280;7516;43.570;1.448;2023-08-07T07:33:26;100257.72;;;16.91;65.52
28306;BME280;7516;43.570;1.448;2023-08-07T07:35:54;100255.91;;;16.98;65.70
28306;BME280;7516;43.570;1.448;2023-08-07T07:38:21;100251.88;;;17.02;65.61
28306;BME280;7516;43.570;1.448;2023-08-07T07:40:50;100253.09;;;17.06;65.61
28306;BME280;7516;43.570;1.448;2023-08-07T07:43:21;100255.34;;;17.09;65.29
28306;BME280;7516;43.570;1.448;2023-08-07T07:45:49;100252.09;;;17.14;64.85
28306;BME280;7516;43.570;1.448;2023-08-07T07:48:16;100254.94;;;17.19;64.98
28306;BME280;7516;43.570;1.448;2023-08-07T07:50:44;100251.72;;;17.23;64.38
28306;BME280;7516;43.570;1.448;2023-08-07T07:53:11;100244.34;;;17.25;64.34
28306;BME280;7516;43.570;1.448;2023-08-07T07:55:39;100250.69;;;17.31;64.53
28306;BME280;7516;43.570;1.448;2023-08-07T07:58:07;100242.31;;;17.34;64.10
28306;BME280;7516;43.570;1.448;2023-08-07T08:00:35;100251.72;;;17.37;63.91
28306;BME280;7516;43.570;1.448;2023-08-07T08:03:03;100244.78;;;17.42;63.80
28306;BME280;7516;43.570;1.448;2023-08-07T08:05:31;100247.66;;;17.47;63.83
28306;BME280;7516;43.570;1.448;2023-08-07T08:07:59;100243.56;;;17.51;62.93
28306;BME280;7516;43.570;1.448;2023-08-07T08:10:26;100245.59;;;17.56;63.11
28306;BME280;7516;43.570;1.448;2023-08-07T08:12:55;100248.88;;;17.58;63.03
28306;BME280;7516;43.570;1.448;2023-08-07T08:15:24;100244.63;;;17.63;62.80
28306;BME280;7516;43.570;1.448;2023-08-07T08:17:51;100249.91;;;17.70;62.86
28306;BME280;7516;43.570;1.448;2023-08-07T08:20:19;100253.78;;;17.74;62.49
28306;BME280;7516;43.570;1.448;2023-08-07T08:22:47;100258.25;;;17.80;62.17
28306;BME280;7516;43.570;1.448;2023-08-07T08:25:14;100249.47;;;17.86;62.15
28306;BME280;7516;43.570;1.448;2023-08-07T08:27:43;100257.84;;;17.90;62.02
28306;BME280;7516;43.570;1.448;2023-08-07T08:30:11;100263.56;;;17.93;61.62
28306;BME280;7516;43.570;1.448;2023-08-07T08:32:40;100254.16;;;17.97;61.63
28306;BME280;7516;43.570;1.448;2023-08-07T08:35:08;100261.28;;;18.03;61.69
28306;BME280;7516;43.570;1.448;2023-08-07T08:37:36;100256.19;;;18.09;61.20
28306;BME280;7516;43.570;1.448;2023-08-07T08:40:04;100250.47;;;18.12;61.05
28306;BME280;7516;43.570;1.448;2023-08-07T08:42:32;100250.03;;;18.15;60.79
28306;BME280;7516;43.570;1.448;2023-08-07T08:45:01;100251.28;;;18.19;60.57
28306;BME280;7516;43.570;1.448;2023-08-07T08:47:30;100250.44;;;18.25;60.46
28306;BME280;7516;43.570;1.448;2023-08-07T08:50:04;100252.84;;;18.33;60.51
28306;BME280;7516;43.570;1.448;2023-08-07T08:52:34;100250.19;;;18.33;60.14
28306;BME280;7516;43.570;1.448;2023-08-07T08:55:03;100248.56;;;18.32;59.93
28306;BME280;7516;43.570;1.448;2023-08-07T08:57:31;100256.53;;;18.32;59.80
28306;BME280;7516;43.570;1.448;2023-08-07T09:00:00;100256.50;;;18.38;59.65
28306;BME280;7516;43.570;1.448;2023-08-07T09:02:31;100246.28;;;18.42;59.08
28306;BME280;7516;43.570;1.448;2023-08-07T09:04:58;100258.53;;;18.43;59.01
28306;BME280;7516;43.570;1.448;2023-08-07T09:07:27;100256.06;;;18.48;58.73
28306;BME280;7516;43.570;1.448;2023-08-07T09:09:56;100261.16;;;18.50;58.54
28306;BME280;7516;43.570;1.448;2023-08-07T09:12:27;100262.19;;;18.55;57.99
28306;BME280;7516;43.570;1.448;2023-08-07T09:14:57;100263.00;;;18.62;57.97
28306;BME280;7516;43.570;1.448;2023-08-07T09:17:28;100254.19;;;18.68;57.66
28306;BME280;7516;43.570;1.448;2023-08-07T09:19:56;100256.38;;;18.78;57.41
28306;BME280;7516;43.570;1.448;2023-08-07T09:22:24;100247.19;;;18.81;57.01
28306;BME280;7516;43.570;1.448;2023-08-07T09:24:53;100254.94;;;18.82;57.02
28306;BME280;7516;43.570;1.448;2023-08-07T09:27:21;100250.00;;;18.86;56.75
28306;BME280;7516;43.570;1.448;2023-08-07T09:29:49;100257.56;;;18.89;56.48
28306;BME280;7516;43.570;1.448;2023-08-07T09:32:16;100246.28;;;18.93;56.12
28306;BME280;7516;43.570;1.448;2023-08-07T09:34:44;100252.00;;;18.97;56.10
28306;BME280;7516;43.570;1.448;2023-08-07T09:37:12;100243.94;;;19.10;55.79
28306;BME280;7516;43.570;1.448;2023-08-07T09:39:41;100255.56;;;19.15;55.35
28306;BME280;7516;43.570;1.448;2023-08-07T09:42:15;100249.59;;;19.20;54.93
28306;BME280;7516;43.570;1.448;2023-08-07T09:44:43;100242.66;;;19.19;54.76
28306;BME280;7516;43.570;1.448;2023-08-07T09:47:14;100242.44;;;19.21;54.84
28306;BME280;7516;43.570;1.448;2023-08-07T09:49:41;100251.22;;;19.21;54.61
28306;BME280;7516;43.570;1.448;2023-08-07T09:52:12;100248.56;;;19.21;54.46
28306;BME280;7516;43.570;1.448;2023-08-07T09:54:40;100236.50;;;19.18;54.36
28306;BME280;7516;43.570;1.448;2023-08-07T09:57:08;100237.94;;;19.21;54.09
28306;BME280;7516;43.570;1.448;2023-08-07T09:59:37;100235.22;;;19.28;54.04
28306;BME280;7516;43.570;1.448;2023-08-07T10:02:05;100232.75;;;19.33;53.89
28306;BME280;7516;43.570;1.448;2023-08-07T10:04:33;100246.38;;;19.43;53.96
28306;BME280;7516;43.570;1.448;2023-08-07T10:07:02;100241.03;;;19.49;53.68
28306;BME280;7516;43.570;1.448;2023-08-07T10:09:29;100225.69;;;19.51;53.38
28306;BME280;7516;43.570;1.448;2023-08-07T10:11:58;100226.84;;;19.56;52.98
28306;BME280;7516;43.570;1.448;2023-08-07T10:14:27;100229.47;;;19.62;52.94
28306;BME280;7516;43.570;1.448;2023-08-07T10:16:56;100238.56;;;19.73;52.42
28306;BME280;7516;43.570;1.448;2023-08-07T10:19:23;100223.22;;;19.75;52.12
28306;BME280;7516;43.570;1.448;2023-08-07T10:21:51;100216.25;;;19.74;52.00
28306;BME280;7516;43.570;1.448;2023-08-07T10:24:21;100214.00;;;19.77;52.06
28306;BME280;7516;43.570;1.448;2023-08-07T10:26:50;100222.50;;;19.86;51.86
28306;BME280;7516;43.570;1.448;2023-08-07T10:29:20;100207.72;;;19.90;51.66
28306;BME280;7516;43.570;1.448;2023-08-07T10:31:49;100213.19;;;19.95;51.48
28306;BME280;7516;43.570;1.448;2023-08-07T10:34:18;100212.53;;;20.00;51.45
28306;BME280;7516;43.570;1.448;2023-08-07T10:36:46;100205.13;;;20.02;51.13
28306;BME280;7516;43.570;1.448;2023-08-07T10:39:15;100207.13;;;20.06;51.21
28306;BME280;7516;43.570;1.448;2023-08-07T10:41:45;100203.44;;;20.07;51.00
28306;BME280;7516;43.570;1.448;2023-08-07T10:44:20;100195.66;;;20.06;50.78
28306;BME280;7516;43.570;1.448;2023-08-07T10:46:48;100194.41;;;20.08;50.82
28306;BME280;7516;43.570;1.448;2023-08-07T10:49:35;100202.69;;;20.18;50.72
28306;BME280;7516;43.570;1.448;2023-08-07T10:52:04;100196.03;;;20.27;50.52
28306;BME280;7516;43.570;1.448;2023-08-07T10:54:37;100201.09;;;20.36;49.89
28306;BME280;7516;43.570;1.448;2023-08-07T10:57:11;100193.69;;;20.38;49.58
28306;BME280;7516;43.570;1.448;2023-08-07T10:59:44;100201.22;;;20.41;49.13
28306;BME280;7516;43.570;1.448;2023-08-07T11:02:13;100190.13;;;20.44;49.15
28306;BME280;7516;43.570;1.448;2023-08-07T11:04:51;100180.28;;;20.44;48.89
28306;BME280;7516;43.570;1.448;2023-08-07T11:07:24;100186.56;;;20.50;48.88
28306;BME280;7516;43.570;1.448;2023-08-07T11:09:52;100179.88;;;20.59;48.46
28306;BME280;7516;43.570;1.448;2023-08-07T11:12:20;100173.50;;;20.60;48.43
28306;BME280;7516;43.570;1.448;2023-08-07T11:14:47;100161.59;;;20.62;48.34
28306;BME280;7516;43.570;1.448;2023-08-07T11:17:15;100171.56;;;20.67;48.32
28306;BME280;7516;43.570;1.448;2023-08-07T11:19:46;100164.53;;;20.73;48.03
28306;BME280;7516;43.570;1.448;2023-08-07T11:22:15;100174.06;;;20.80;48.16
28306;BME280;7516;43.570;1.448;2023-08-07T11:24:43;100167.25;;;20.84;47.99
28306;BME280;7516;43.570;1.448;2023-08-07T11:27:10;100162.47;;;20.86;47.85
28306;BME280;7516;43.570;1.448;2023-08-07T11:29:38;100162.03;;;20.89;47.63
28306;BME280;7516;43.570;1.448;2023-08-07T11:32:06;100159.63;;;20.99;47.46
28306;BME280;7516;43.570;1.448;2023-08-07T11:34:33;100156.63;;;21.08;47.29
28306;BME280;7516;43.570;1.448;2023-08-07T11:37:01;100155.38;;;21.10;47.11
28306;BME280;7516;43.570;1.448;2023-08-07T11:39:30;100157.78;;;21.12;47.09
28306;BME280;7516;43.570;1.448;2023-08-07T11:41:59;100148.75;;;21.13;46.94
28306;BME280;7516;43.570;1.448;2023-08-07T11:44:27;100151.56;;;21.18;46.84
28306;BME280;7516;43.570;1.448;2023-08-07T11:46:54;100144.94;;;21.20;46.80
28306;BME280;7516;43.570;1.448;2023-08-07T11:49:22;100141.72;;;21.30;46.54
28306;BME280;7516;43.570;1.448;2023-08-07T11:51:49;100138.16;;;21.36;46.41
28306;BME280;7516;43.570;1.448;2023-08-07T11:54:17;100141.94;;;21.40;46.18
28306;BME280;7516;43.570;1.448;2023-08-07T11:56:47;100131.88;;;21.42;45.90
28306;BME280;7516;43.570;1.448;2023-08-07T11:59:17;100148.09;;;21.52;46.08
28306;BME280;7516;43.570;1.448;2023-08-07T12:01:46;100143.91;;;21.56;45.99
28306;BME280;7516;43.570;1.448;2023-08-07T12:04:13;100132.44;;;21.56;45.56
28306;BME280;7516;43.570;1.448;2023-08-07T12:06:53;100127.09;;;21.67;45.70
28306;BME280;7516;43.570;1.448;2023-08-07T12:09:20;100121.03;;;21.84;45.74
28306;BME280;7516;43.570;1.448;2023-08-07T12:11:49;100127.03;;;21.91;45.52
28306;BME280;7516;43.570;1.448;2023-08-07T12:14:17;100128.66;;;21.92;45.32
28306;BME280;7516;43.570;1.448;2023-08-07T12:16:44;100128.13;;;21.90;45.23
28306;BME280;7516;43.570;1.448;2023-08-07T12:19:12;100114.78;;;21.90;45.09
28306;BME280;7516;43.570;1.448;2023-08-07T12:21:41;100110.94;;;21.86;44.83
28306;BME280;7516;43.570;1.448;2023-08-07T12:24:09;100105.00;;;21.84;44.84
28306;BME280;7516;43.570;1.448;2023-08-07T12:26:37;100115.00;;;21.88;44.74
28306;BME280;7516;43.570;1.448;2023-08-07T12:29:06;100109.53;;;21.95;44.50
28306;BME280;7516;43.570;1.448;2023-08-07T12:31:33;100108.28;;;21.97;44.33
28306;BME280;7516;43.570;1.448;2023-08-07T12:34:01;100094.09;;;21.97;44.17
28306;BME280;7516;43.570;1.448;2023-08-07T12:36:28;100100.00;;;21.99;44.04
28306;BME280;7516;43.570;1.448;2023-08-07T12:38:56;100097.09;;;22.00;43.87
28306;BME280;7516;43.570;1.448;2023-08-07T12:41:23;100087.44;;;22.11;43.75
28306;BME280;7516;43.570;1.448;2023-08-07T12:43:51;100092.66;;;22.34;43.67
28306;BME280;7516;43.570;1.448;2023-08-07T12:46:20;100096.97;;;22.35;43.37
28306;BME280;7516;43.570;1.448;2023-08-07T12:48:48;100092.66;;;22.34;43.06
28306;BME280;7516;43.570;1.448;2023-08-07T12:51:16;100095.44;;;22.39;42.67
28306;BME280;7516;43.570;1.448;2023-08-07T12:53:43;100091.81;;;22.45;42.59
28306;BME280;7516;43.570;1.448;2023-08-07T12:56:13;100092.38;;;22.47;42.50
28306;BME280;7516;43.570;1.448;2023-08-07T12:58:40;100089.13;;;22.45;42.44
28306;BME280;7516;43.570;1.448;2023-08-07T13:01:08;100087.03;;;22.47;42.41
28306;BME280;7516;43.570;1.448;2023-08-07T13:03:37;100077.97;;;22.48;42.05
28306;BME280;7516;43.570;1.448;2023-08-07T13:06:05;100072.72;;;22.53;42.02